sensor_id;sensor_type;location;lat;lon;timestamp;temperature;humidity
15013;DHT22;7603;49.432;11.418;2023-06-14T00:01:53;12.80;85.20
15013;DHT22;7603;49.432;11.418;2023-06-14T00:04:19;12.70;85.90
15013;DHT22;7603;49.432;11.418;2023-06-14T00:06:46;12.60;85.90
15013;DHT22;7603;49.432;11.418;2023-06-14T00:09:12;12.60;86.30
15013;DHT22;7603;49.432;11.418;2023-06-14T00:11:39;12.50;87.60
15013;DHT22;7603;49.432;11.418;2023-06-14T00:14:05;12.40;87.70
15013;DHT22;7603;49.432;11.418;2023-06-14T00:16:31;12.30;88.90
15013;DHT22;7603;49.432;11.418;2023-06-14T00:18:59;12.30;90.20
15013;DHT22;7603;49.432;11.418;2023-06-14T00:21:24;12.20;90.70
15013;DHT22;7603;49.432;11.418;2023-06-14T00:23:50;12.20;90.80
15013;DHT22;7603;49.432;11.418;2023-06-14T00:26:16;12.20;90.80
15013;DHT22;7603;49.432;11.418;2023-06-14T00:28:41;12.20;91.30
15013;DHT22;7603;49.432;11.418;2023-06-14T00:31:07;12.20;91.70
15013;DHT22;7603;49.432;11.418;2023-06-14T00:33:33;12.10;91.90
15013;DHT22;7603;49.432;11.418;2023-06-14T00:35:58;12.10;92.00
15013;DHT22;7603;49.432;11.418;2023-06-14T00:38:24;12.00;91.90
15013;DHT22;7603;49.432;11.418;2023-06-14T00:40:50;11.90;92.30
15013;DHT22;7603;49.432;11.418;2023-06-14T00:43:16;11.90;92.50
15013;DHT22;7603;49.432;11.418;2023-06-14T00:45:41;11.80;93.00
15013;DHT22;7603;49.432;11.418;2023-06-14T00:48:08;11.70;93.20
15013;DHT22;7603;49.432;11.418;2023-06-14T00:50:35;11.70;93.60
15013;DHT22;7603;49.432;11.418;2023-06-14T00:53:02;11.60;94.20
15013;DHT22;7603;49.432;11.418;2023-06-14T00:55:28;11.50;94.40
15013;DHT22;7603;49.432;11.418;2023-06-14T00:57:55;11.50;94.90
15013;DHT22;7603;49.432;11.418;2023-06-14T01:00:21;11.40;95.10
15013;DHT22;7603;49.432;11.418;2023-06-14T01:02:46;11.30;95.20
15013;DHT22;7603;49.432;11.418;2023-06-14T01:05:14;11.20;95.80
15013;DHT22;7603;49.432;11.418;2023-06-14T01:07:59;11.20;95.80
15013;DHT22;7603;49.432;11.418;2023-06-14T01:13:21;11.00;96.50
15013;DHT22;7603;49.432;11.418;2023-06-14T01:15:50;11.00;96.90
15013;DHT22;7603;49.432;11.418;2023-06-14T01:18:16;10.90;97.00
15013;DHT22;7603;49.432;11.418;2023-06-14T01:20:45;10.80;97.20
15013;DHT22;7603;49.432;11.418;2023-06-14T01:23:11;10.80;97.90
15013;DHT22;7603;49.432;11.418;2023-06-14T01:25:39;10.80;98.30
15013;DHT22;7603;49.432;11.418;2023-06-14T01:28:06;10.80;98.40
15013;DHT22;7603;49.432;11.418;2023-06-14T01:30:39;10.90;98.20
15013;DHT22;7603;49.432;11.418;2023-06-14T01:33:12;10.90;97.60
15013;DHT22;7603;49.432;11.418;2023-06-14T01:35:39;10.90;97.60
15013;DHT22;7603;49.432;11.418;2023-06-14T01:38:06;11.00;97.80
15013;DHT22;7603;49.432;11.418;2023-06-14T01:40:34;11.00;98.20
15013;DHT22;7603;49.432;11.418;2023-06-14T01:43:00;11.00;97.80
15013;DHT22;7603;49.432;11.418;2023-06-14T01:45:27;11.00;97.90
15013;DHT22;7603;49.432;11.418;2023-06-14T01:47:53;11.00;97.70
15013;DHT22;7603;49.432;11.418;2023-06-14T01:50:20;11.00;96.80
15013;DHT22;7603;49.432;11.418;2023-06-14T01:52:46;11.10;96.80
15013;DHT22;7603;49.432;11.418;2023-06-14T01:55:12;11.10;97.10
15013;DHT22;7603;49.432;11.418;2023-06-14T01:57:37;11.10;96.90
15013;DHT22;7603;49.432;11.418;2023-06-14T02:00:04;11.10;96.70
15013;DHT22;7603;49.432;11.418;2023-06-14T02:02:33;11.10;96.60
15013;DHT22;7603;49.432;11.418;2023-06-14T02:04:59;11.10;96.40
15013;DHT22;7603;49.432;11.418;2023-06-14T02:07:24;11.10;96.30
15013;DHT22;7603;49.432;11.418;2023-06-14T02:09:50;11.10;96.10
15013;DHT22;7603;49.432;11.418;2023-06-14T02:12:16;11.20;96.10
15013;DHT22;7603;49.432;11.418;2023-06-14T02:14:41;11.20;96.70
15013;DHT22;7603;49.432;11.418;2023-06-14T02:17:07;11.10;97.00
15013;DHT22;7603;49.432;11.418;2023-06-14T02:19:33;11.10;97.20
15013;DHT22;7603;49.432;11.418;2023-06-14T02:21:59;11.00;96.90
15013;DHT22;7603;49.432;11.418;2023-06-14T02:24:24;11.00;97.10
15013;DHT22;7603;49.432;11.418;2023-06-14T02:26:50;11.00;97.20
15013;DHT22;7603;49.432;11.418;2023-06-14T02:29:16;10.90;97.40
15013;DHT22;7603;49.432;11.418;2023-06-14T02:31:41;10.90;98.00
15013;DHT22;7603;49.432;11.418;2023-06-14T02:34:07;10.80;97.90
15013;DHT22;7603;49.432;11.418;2023-06-14T02:36:36;10.70;97.90
15013;DHT22;7603;49.432;11.418;2023-06-14T02:39:08;10.70;98.20
15013;DHT22;7603;49.432;11.418;2023-06-14T02:41:34;10.70;97.90
15013;DHT22;7603;49.432;11.418;2023-06-14T02:44:00;10.70;97.80
15013;DHT22;7603;49.432;11.418;2023-06-14T02:46:26;10.80;97.90
15013;DHT22;7603;49.432;11.418;2023-06-14T02:48:51;10.80;97.80
15013;DHT22;7603;49.432;11.418;2023-06-14T02:51:17;10.80;97.90
15013;DHT22;7603;49.432;11.418;2023-06-14T02:53:43;10.70;98.20
15013;DHT22;7603;49.432;11.418;2023-06-14T02:56:09;10.70;98.50
15013;DHT22;7603;49.432;11.418;2023-06-14T02:58:36;10.70;98.20
15013;DHT22;7603;49.432;11.418;2023-06-14T03:01:02;10.70;98.00
15013;DHT22;7603;49.432;11.418;2023-06-14T03:03:28;10.70;97.90
15013;DHT22;7603;49.432;11.418;2023-06-14T03:05:54;10.70;98.20
15013;DHT22;7603;49.432;11.418;2023-06-14T03:08:20;10.60;98.30
15013;DHT22;7603;49.432;11.418;2023-06-14T03:10:46;10.60;98.50
15013;DHT22;7603;49.432;11.418;2023-06-14T03:13:13;10.60;98.80
15013;DHT22;7603;49.432;11.418;2023-06-14T03:15:38;10.60;98.90
15013;DHT22;7603;49.432;11.418;2023-06-14T03:18:07;10.50;99.00
15013;DHT22;7603;49.432;11.418;2023-06-14T03:20:33;10.60;98.80
15013;DHT22;7603;49.432;11.418;2023-06-14T03:23:02;10.70;98.80
15013;DHT22;7603;49.432;11.418;2023-06-14T03:25:29;10.70;98.50
15013;DHT22;7603;49.432;11.418;2023-06-14T03:27:56;10.90;98.50
15013;DHT22;7603;49.432;11.418;2023-06-14T03:30:21;11.00;98.30
15013;DHT22;7603;49.432;11.418;2023-06-14T03:32:47;11.20;98.50
15013;DHT22;7603;49.432;11.418;2023-06-14T03:35:13;11.50;97.50
15013;DHT22;7603;49.432;11.418;2023-06-14T03:37:44;11.90;97.00
15013;DHT22;7603;49.432;11.418;2023-06-14T03:40:10;12.40;95.80
15013;DHT22;7603;49.432;11.418;2023-06-14T03:42:36;12.90;94.30
15013;DHT22;7603;49.432;11.418;2023-06-14T03:45:02;13.40;92.90
15013;DHT22;7603;49.432;11.418;2023-06-14T03:47:28;13.70;91.30
15013;DHT22;7603;49.432;11.418;2023-06-14T03:49:53;13.90;90.30
15013;DHT22;7603;49.432;11.418;2023-06-14T03:52:19;14.10;89.60
15013;DHT22;7603;49.432;11.418;2023-06-14T03:54:44;14.20;87.80
15013;DHT22;7603;49.432;11.418;2023-06-14T03:57:11;14.30;86.10
15013;DHT22;7603;49.432;11.418;2023-06-14T03:59:37;14.40;85.70
15013;DHT22;7603;49.432;11.418;2023-06-14T04:02:03;14.60;84.90
15013;DHT22;7603;49.432;11.418;2023-06-14T04:04:28;14.70;84.00
15013;DHT22;7603;49.432;11.418;2023-06-14T04:06:55;14.70;83.20
15013;DHT22;7603;49.432;11.418;2023-06-14T04:09:23;14.80;82.60
15013;DHT22;7603;49.432;11.418;2023-06-14T04:11:52;15.00;82.10
15013;DHT22;7603;49.432;11.418;2023-06-14T04:14:19;15.10;81.30
15013;DHT22;7603;49.432;11.418;2023-06-14T04:16:46;15.10;80.40
15013;DHT22;7603;49.432;11.418;2023-06-14T04:19:12;15.00;80.10
15013;DHT22;7603;49.432;11.418;2023-06-14T04:21:37;14.60;80.90
15013;DHT22;7603;49.432;11.418;2023-06-14T04:24:03;14.20;82.40
15013;DHT22;7603;49.432;11.418;2023-06-14T04:26:29;13.80;84.00
15013;DHT22;7603;49.432;11.418;2023-06-14T04:28:56;13.50;85.90
15013;DHT22;7603;49.432;11.418;2023-06-14T04:31:23;13.20;87.50
15013;DHT22;7603;49.432;11.418;2023-06-14T04:33:50;13.00;89.30
15013;DHT22;7603;49.432;11.418;2023-06-14T04:36:18;12.80;90.50
15013;DHT22;7603;49.432;11.418;2023-06-14T04:38:44;12.60;91.30
15013;DHT22;7603;49.432;11.418;2023-06-14T04:41:11;12.50;92.10
15013;DHT22;7603;49.432;11.418;2023-06-14T04:43:38;12.30;92.70
15013;DHT22;7603;49.432;11.418;2023-06-14T04:46:07;12.20;93.70
15013;DHT22;7603;49.432;11.418;2023-06-14T04:48:37;12.20;94.50
15013;DHT22;7603;49.432;11.418;2023-06-14T04:51:09;12.10;94.70
15013;DHT22;7603;49.432;11.418;2023-06-14T04:53:35;12.20;94.90
15013;DHT22;7603;49.432;11.418;2023-06-14T04:56:01;12.20;95.10
15013;DHT22;7603;49.432;11.418;2023-06-14T04:58:27;12.30;95.30
15013;DHT22;7603;49.432;11.418;2023-06-14T05:00:54;12.40;95.30
15013;DHT22;7603;49.432;11.418;2023-06-14T05:03:21;12.50;95.40
15013;DHT22;7603;49.432;11.418;2023-06-14T05:05:47;12.60;95.30
15013;DHT22;7603;49.432;11.418;2023-06-14T05:08:13;12.80;95.00
15013;DHT22;7603;49.432;11.418;2023-06-14T05:10:39;12.90;94.70
15013;DHT22;7603;49.432;11.418;2023-06-14T05:13:04;13.10;94.30
15013;DHT22;7603;49.432;11.418;2023-06-14T05:15:30;13.20;94.00
15013;DHT22;7603;49.432;11.418;2023-06-14T05:17:55;13.40;94.20
15013;DHT22;7603;49.432;11.418;2023-06-14T05:20:23;13.50;93.80
15013;DHT22;7603;49.432;11.418;2023-06-14T05:22:51;13.60;93.50
15013;DHT22;7603;49.432;11.418;2023-06-14T05:25:17;13.70;93.30
15013;DHT22;7603;49.432;11.418;2023-06-14T05:27:43;13.90;92.90
15013;DHT22;7603;49.432;11.418;2023-06-14T05:30:09;14.20;92.40
15013;DHT22;7603;49.432;11.418;2023-06-14T05:32:35;14.40;92.10
15013;DHT22;7603;49.432;11.418;2023-06-14T05:35:01;14.60;91.70
15013;DHT22;7603;49.432;11.418;2023-06-14T05:37:26;14.80;91.30
15013;DHT22;7603;49.432;11.418;2023-06-14T05:39:52;15.00;91.10
15013;DHT22;7603;49.432;11.418;2023-06-14T05:42:17;15.10;90.60
15013;DHT22;7603;49.432;11.418;2023-06-14T05:44:43;15.30;90.20
15013;DHT22;7603;49.432;11.418;2023-06-14T05:47:09;15.50;88.20
15013;DHT22;7603;49.432;11.418;2023-06-14T05:49:34;15.70;87.60
15013;DHT22;7603;49.432;11.418;2023-06-14T05:52:00;15.80;86.00
15013;DHT22;7603;49.432;11.418;2023-06-14T05:54:26;16.00;85.60
15013;DHT22;7603;49.432;11.418;2023-06-14T05:56:51;16.10;84.90
15013;DHT22;7603;49.432;11.418;2023-06-14T05:59:17;16.30;82.50
15013;DHT22;7603;49.432;11.418;2023-06-14T06:01:42;16.60;81.20
15013;DHT22;7603;49.432;11.418;2023-06-14T06:04:09;16.80;79.60
15013;DHT22;7603;49.432;11.418;2023-06-14T06:06:34;16.90;78.80
15013;DHT22;7603;49.432;11.418;2023-06-14T06:09:01;17.00;78.30
15013;DHT22;7603;49.432;11.418;2023-06-14T06:11:27;17.20;76.50
15013;DHT22;7603;49.432;11.418;2023-06-14T06:13:53;17.30;76.00
15013;DHT22;7603;49.432;11.418;2023-06-14T06:16:18;17.40;75.80
15013;DHT22;7603;49.432;11.418;2023-06-14T06:18:44;17.50;75.60
15013;DHT22;7603;49.432;11.418;2023-06-14T06:21:09;17.50;75.40
15013;DHT22;7603;49.432;11.418;2023-06-14T06:23:35;17.60;75.40
15013;DHT22;7603;49.432;11.418;2023-06-14T06:26:01;17.70;74.90
15013;DHT22;7603;49.432;11.418;2023-06-14T06:28:26;17.80;74.90
15013;DHT22;7603;49.432;11.418;2023-06-14T06:30:52;17.90;74.20
15013;DHT22;7603;49.432;11.418;2023-06-14T06:33:18;18.00;73.80
15013;DHT22;7603;49.432;11.418;2023-06-14T06:35:44;18.10;73.40
15013;DHT22;7603;49.432;11.418;2023-06-14T06:38:10;18.20;72.80
15013;DHT22;7603;49.432;11.418;2023-06-14T06:40:36;18.40;72.70
15013;DHT22;7603;49.432;11.418;2023-06-14T06:43:02;18.50;70.90
15013;DHT22;7603;49.432;11.418;2023-06-14T06:45:28;18.60;70.50
15013;DHT22;7603;49.432;11.418;2023-06-14T06:47:54;18.70;70.30
15013;DHT22;7603;49.432;11.418;2023-06-14T06:50:21;18.60;70.20
15013;DHT22;7603;49.432;11.418;2023-06-14T06:52:48;18.50;69.80
15013;DHT22;7603;49.432;11.418;2023-06-14T06:55:14;18.50;69.40
15013;DHT22;7603;49.432;11.418;2023-06-14T06:57:40;18.40;69.10
15013;DHT22;7603;49.432;11.418;2023-06-14T07:00:07;18.40;69.10
15013;DHT22;7603;49.432;11.418;2023-06-14T07:02:36;18.40;68.80
15013;DHT22;7603;49.432;11.418;2023-06-14T07:05:02;18.50;68.90
15013;DHT22;7603;49.432;11.418;2023-06-14T07:07:28;18.80;68.20
15013;DHT22;7603;49.432;11.418;2023-06-14T07:09:54;19.00;67.70
15013;DHT22;7603;49.432;11.418;2023-06-14T07:12:19;19.20;65.70
15013;DHT22;7603;49.432;11.418;2023-06-14T07:14:45;19.40;64.50
15013;DHT22;7603;49.432;11.418;2023-06-14T07:17:11;19.70;63.60
15013;DHT22;7603;49.432;11.418;2023-06-14T07:19:36;19.90;62.50
15013;DHT22;7603;49.432;11.418;2023-06-14T07:22:02;20.10;62.20
15013;DHT22;7603;49.432;11.418;2023-06-14T07:24:27;20.30;61.50
15013;DHT22;7603;49.432;11.418;2023-06-14T07:26:53;20.50;61.60
15013;DHT22;7603;49.432;11.418;2023-06-14T07:29:20;20.60;61.30
15013;DHT22;7603;49.432;11.418;2023-06-14T07:31:46;20.80;60.90
15013;DHT22;7603;49.432;11.418;2023-06-14T07:34:12;21.10;59.70
15013;DHT22;7603;49.432;11.418;2023-06-14T07:36:37;21.30;59.10
15013;DHT22;7603;49.432;11.418;2023-06-14T07:39:04;21.50;58.80
15013;DHT22;7603;49.432;11.418;2023-06-14T07:41:31;21.70;58.10
15013;DHT22;7603;49.432;11.418;2023-06-14T07:43:57;21.90;57.80
15013;DHT22;7603;49.432;11.418;2023-06-14T07:46:22;22.00;56.90
15013;DHT22;7603;49.432;11.418;2023-06-14T07:48:48;22.00;56.50
15013;DHT22;7603;49.432;11.418;2023-06-14T07:51:14;22.10;56.50
15013;DHT22;7603;49.432;11.418;2023-06-14T07:53:39;22.00;56.30
15013;DHT22;7603;49.432;11.418;2023-06-14T07:56:06;21.90;56.20
15013;DHT22;7603;49.432;11.418;2023-06-14T07:58:32;22.00;56.10
15013;DHT22;7603;49.432;11.418;2023-06-14T08:00:57;22.00;56.10
15013;DHT22;7603;49.432;11.418;2023-06-14T08:03:23;21.90;55.60
15013;DHT22;7603;49.432;11.418;2023-06-14T08:05:49;21.80;55.70
15013;DHT22;7603;49.432;11.418;2023-06-14T08:08:15;21.80;55.90
15013;DHT22;7603;49.432;11.418;2023-06-14T08:10:41;21.80;55.80
15013;DHT22;7603;49.432;11.418;2023-06-14T08:13:07;21.90;55.60
15013;DHT22;7603;49.432;11.418;2023-06-14T08:15:34;22.10;55.20
15013;DHT22;7603;49.432;11.418;2023-06-14T08:18:00;22.20;55.00
15013;DHT22;7603;49.432;11.418;2023-06-14T08:20:26;22.30;54.40
15013;DHT22;7603;49.432;11.418;2023-06-14T08:22:52;22.40;53.90
15013;DHT22;7603;49.432;11.418;2023-06-14T08:25:20;22.50;53.50
15013;DHT22;7603;49.432;11.418;2023-06-14T08:27:46;22.70;53.60
15013;DHT22;7603;49.432;11.418;2023-06-14T08:30:12;22.90;53.20
15013;DHT22;7603;49.432;11.418;2023-06-14T08:32:38;23.20;52.70
15013;DHT22;7603;49.432;11.418;2023-06-14T08:35:04;23.40;52.10
15013;DHT22;7603;49.432;11.418;2023-06-14T08:37:31;23.60;51.80
15013;DHT22;7603;49.432;11.418;2023-06-14T08:39:56;24.00;51.10
15013;DHT22;7603;49.432;11.418;2023-06-14T08:42:24;24.20;50.60
15013;DHT22;7603;49.432;11.418;2023-06-14T08:44:50;24.40;49.60
15013;DHT22;7603;49.432;11.418;2023-06-14T08:47:15;24.50;49.60
15013;DHT22;7603;49.432;11.418;2023-06-14T08:49:46;24.70;48.80
15013;DHT22;7603;49.432;11.418;2023-06-14T08:52:13;24.90;48.00
15013;DHT22;7603;49.432;11.418;2023-06-14T08:54:44;25.10;48.70
15013;DHT22;7603;49.432;11.418;2023-06-14T08:57:13;25.20;47.50
15013;DHT22;7603;49.432;11.418;2023-06-14T08:59:47;25.30;46.60
15013;DHT22;7603;49.432;11.418;2023-06-14T09:02:15;25.40;46.60
15013;DHT22;7603;49.432;11.418;2023-06-14T09:04:43;25.60;45.90
15013;DHT22;7603;49.432;11.418;2023-06-14T09:07:10;25.70;44.80
15013;DHT22;7603;49.432;11.418;2023-06-14T09:09:39;25.70;44.80
15013;DHT22;7603;49.432;11.418;2023-06-14T09:12:10;25.70;44.20
15013;DHT22;7603;49.432;11.418;2023-06-14T09:14:36;25.60;43.80
15013;DHT22;7603;49.432;11.418;2023-06-14T09:17:05;25.70;44.00
15013;DHT22;7603;49.432;11.418;2023-06-14T09:19:31;25.80;44.10
15013;DHT22;7603;49.432;11.418;2023-06-14T09:21:56;26.00;44.20
15013;DHT22;7603;49.432;11.418;2023-06-14T09:24:24;26.40;44.10
15013;DHT22;7603;49.432;11.418;2023-06-14T09:26:51;26.60;41.70
15013;DHT22;7603;49.432;11.418;2023-06-14T09:29:17;26.70;40.90
15013;DHT22;7603;49.432;11.418;2023-06-14T09:31:47;26.50;40.70
15013;DHT22;7603;49.432;11.418;2023-06-14T09:34:13;26.20;40.80
15013;DHT22;7603;49.432;11.418;2023-06-14T09:36:40;26.00;41.20
15013;DHT22;7603;49.432;11.418;2023-06-14T09:39:08;25.80;41.80
15013;DHT22;7603;49.432;11.418;2023-06-14T09:41:35;25.60;42.20
15013;DHT22;7603;49.432;11.418;2023-06-14T09:44:03;25.50;41.90
15013;DHT22;7603;49.432;11.418;2023-06-14T09:46:30;25.50;42.00
15013;DHT22;7603;49.432;11.418;2023-06-14T09:48:58;25.60;42.50
15013;DHT22;7603;49.432;11.418;2023-06-14T09:51:25;25.70;42.40
15013;DHT22;7603;49.432;11.418;2023-06-14T09:53:52;25.90;42.00
15013;DHT22;7603;49.432;11.418;2023-06-14T09:56:28;26.10;42.00
15013;DHT22;7603;49.432;11.418;2023-06-14T09:58:58;26.30;42.10
15013;DHT22;7603;49.432;11.418;2023-06-14T10:01:30;26.20;41.90
15013;DHT22;7603;49.432;11.418;2023-06-14T10:04:07;26.00;42.00
15013;DHT22;7603;49.432;11.418;2023-06-14T10:06:36;25.90;42.60
15013;DHT22;7603;49.432;11.418;2023-06-14T10:09:04;25.80;42.50
15013;DHT22;7603;49.432;11.418;2023-06-14T10:11:33;25.80;42.50
15013;DHT22;7603;49.432;11.418;2023-06-14T10:14:01;25.80;42.80
15013;DHT22;7603;49.432;11.418;2023-06-14T10:22:00;25.40;42.10
15013;DHT22;7603;49.432;11.418;2023-06-14T10:24:33;25.40;42.30
15013;DHT22;7603;49.432;11.418;2023-06-14T10:27:00;25.60;42.40
15013;DHT22;7603;49.432;11.418;2023-06-14T10:29:27;25.70;42.10
15013;DHT22;7603;49.432;11.418;2023-06-14T10:31:59;25.80;41.50
15013;DHT22;7603;49.432;11.418;2023-06-14T10:34:29;26.00;41.00
15013;DHT22;7603;49.432;11.418;2023-06-14T10:39:29;26.00;40.00
15013;DHT22;7603;49.432;11.418;2023-06-14T10:41:56;26.20;40.00
15013;DHT22;7603;49.432;11.418;2023-06-14T10:46:48;26.50;40.00
15013;DHT22;7603;49.432;11.418;2023-06-14T10:49:37;26.80;39.90
15013;DHT22;7603;49.432;11.418;2023-06-14T10:52:09;27.00;39.40
15013;DHT22;7603;49.432;11.418;2023-06-14T10:54:37;27.30;39.40
15013;DHT22;7603;49.432;11.418;2023-06-14T10:57:06;27.60;38.90
15013;DHT22;7603;49.432;11.418;2023-06-14T10:59:33;28.10;37.60
15013;DHT22;7603;49.432;11.418;2023-06-14T11:04:49;30.50;35.80
15013;DHT22;7603;49.432;11.418;2023-06-14T11:07:58;32.60;33.80
15013;DHT22;7603;49.432;11.418;2023-06-14T11:10:37;34.50;30.30
15013;DHT22;7603;49.432;11.418;2023-06-14T11:13:03;36.40;28.50
15013;DHT22;7603;49.432;11.418;2023-06-14T11:15:30;37.90;27.10
15013;DHT22;7603;49.432;11.418;2023-06-14T11:17:56;39.10;26.00
15013;DHT22;7603;49.432;11.418;2023-06-14T11:20:27;40.20;24.90
15013;DHT22;7603;49.432;11.418;2023-06-14T11:22:53;41.00;23.50
15013;DHT22;7603;49.432;11.418;2023-06-14T11:25:19;41.30;23.20
15013;DHT22;7603;49.432;11.418;2023-06-14T11:27:45;41.40;23.00
15013;DHT22;7603;49.432;11.418;2023-06-14T11:30:13;41.30;22.80
15013;DHT22;7603;49.432;11.418;2023-06-14T11:32:39;40.80;22.60
15013;DHT22;7603;49.432;11.418;2023-06-14T11:35:05;39.60;23.10
15013;DHT22;7603;49.432;11.418;2023-06-14T11:37:31;39.00;23.10
15013;DHT22;7603;49.432;11.418;2023-06-14T11:40:01;38.90;23.00
15013;DHT22;7603;49.432;11.418;2023-06-14T11:42:28;38.50;23.40
15013;DHT22;7603;49.432;11.418;2023-06-14T11:44:54;38.70;23.60
15013;DHT22;7603;49.432;11.418;2023-06-14T11:47:20;40.00;22.90
15013;DHT22;7603;49.432;11.418;2023-06-14T11:49:47;41.40;22.00
15013;DHT22;7603;49.432;11.418;2023-06-14T11:52:13;42.30;22.00
15013;DHT22;7603;49.432;11.418;2023-06-14T11:54:39;43.20;21.40
15013;DHT22;7603;49.432;11.418;2023-06-14T11:57:07;44.30;20.90
15013;DHT22;7603;49.432;11.418;2023-06-14T11:59:41;44.90;20.40
15013;DHT22;7603;49.432;11.418;2023-06-14T12:02:08;44.60;20.10
15013;DHT22;7603;49.432;11.418;2023-06-14T12:04:33;44.70;20.10
15013;DHT22;7603;49.432;11.418;2023-06-14T12:07:11;45.00;19.60
15013;DHT22;7603;49.432;11.418;2023-06-14T12:09:41;45.80;18.90
15013;DHT22;7603;49.432;11.418;2023-06-14T12:12:08;47.00;19.50
15013;DHT22;7603;49.432;11.418;2023-06-14T12:14:34;48.10;18.40
15013;DHT22;7603;49.432;11.418;2023-06-14T12:17:07;48.70;17.40
15013;DHT22;7603;49.432;11.418;2023-06-14T12:19:32;48.90;17.10
15013;DHT22;7603;49.432;11.418;2023-06-14T12:22:01;48.90;17.00
15013;DHT22;7603;49.432;11.418;2023-06-14T12:24:29;48.00;16.70
15013;DHT22;7603;49.432;11.418;2023-06-14T12:26:57;47.00;17.20
15013;DHT22;7603;49.432;11.418;2023-06-14T12:29:25;46.20;17.30
15013;DHT22;7603;49.432;11.418;2023-06-14T12:31:50;46.00;17.80
15013;DHT22;7603;49.432;11.418;2023-06-14T12:34:16;45.90;18.10
15013;DHT22;7603;49.432;11.418;2023-06-14T12:36:42;46.50;18.20
15013;DHT22;7603;49.432;11.418;2023-06-14T12:39:10;47.40;17.90
15013;DHT22;7603;49.432;11.418;2023-06-14T12:41:36;48.20;17.30
15013;DHT22;7603;49.432;11.418;2023-06-14T12:44:02;49.10;17.00
15013;DHT22;7603;49.432;11.418;2023-06-14T12:46:30;49.90;16.60
15013;DHT22;7603;49.432;11.418;2023-06-14T12:48:56;50.60;16.20
15013;DHT22;7603;49.432;11.418;2023-06-14T12:51:22;51.30;16.10
15013;DHT22;7603;49.432;11.418;2023-06-14T12:53:49;51.60;15.40
15013;DHT22;7603;49.432;11.418;2023-06-14T12:56:14;51.70;15.50
15013;DHT22;7603;49.432;11.418;2023-06-14T12:58:41;51.70;15.30
15013;DHT22;7603;49.432;11.418;2023-06-14T13:01:07;51.20;15.30
15013;DHT22;7603;49.432;11.418;2023-06-14T13:03:33;51.10;15.20
15013;DHT22;7603;49.432;11.418;2023-06-14T13:06:02;51.50;15.40
15013;DHT22;7603;49.432;11.418;2023-06-14T13:08:29;51.70;15.00
15013;DHT22;7603;49.432;11.418;2023-06-14T13:10:55;51.70;15.10
15013;DHT22;7603;49.432;11.418;2023-06-14T13:13:21;51.40;15.20
15013;DHT22;7603;49.432;11.418;2023-06-14T13:15:46;51.50;14.80
15013;DHT22;7603;49.432;11.418;2023-06-14T13:18:13;51.40;14.40
15013;DHT22;7603;49.432;11.418;2023-06-14T13:20:39;51.50;14.70
15013;DHT22;7603;49.432;11.418;2023-06-14T13:23:05;51.80;14.40
15013;DHT22;7603;49.432;11.418;2023-06-14T13:25:36;52.20;14.70
15013;DHT22;7603;49.432;11.418;2023-06-14T13:28:03;52.50;14.70
15013;DHT22;7603;49.432;11.418;2023-06-14T13:30:29;52.50;14.90
15013;DHT22;7603;49.432;11.418;2023-06-14T13:32:55;52.30;15.00
15013;DHT22;7603;49.432;11.418;2023-06-14T13:35:22;51.60;15.30
15013;DHT22;7603;49.432;11.418;2023-06-14T13:37:48;50.70;15.70
15013;DHT22;7603;49.432;11.418;2023-06-14T13:40:13;49.60;16.10
15013;DHT22;7603;49.432;11.418;2023-06-14T13:42:39;48.40;16.30
15013;DHT22;7603;49.432;11.418;2023-06-14T13:45:06;46.60;16.90
15013;DHT22;7603;49.432;11.418;2023-06-14T13:47:32;44.80;17.50
15013;DHT22;7603;49.432;11.418;2023-06-14T13:49:57;43.30;18.20
15013;DHT22;7603;49.432;11.418;2023-06-14T13:52:23;41.70;19.10
15013;DHT22;7603;49.432;11.418;2023-06-14T13:54:49;40.10;20.10
15013;DHT22;7603;49.432;11.418;2023-06-14T13:57:16;38.90;20.90
15013;DHT22;7603;49.432;11.418;2023-06-14T13:59:41;38.00;21.40
15013;DHT22;7603;49.432;11.418;2023-06-14T14:02:08;37.20;22.40
15013;DHT22;7603;49.432;11.418;2023-06-14T14:04:34;36.50;23.00
15013;DHT22;7603;49.432;11.418;2023-06-14T14:07:01;35.90;23.50
15013;DHT22;7603;49.432;11.418;2023-06-14T14:09:27;35.50;24.30
15013;DHT22;7603;49.432;11.418;2023-06-14T14:11:53;35.30;24.60
15013;DHT22;7603;49.432;11.418;2023-06-14T14:14:18;35.60;24.20
15013;DHT22;7603;49.432;11.418;2023-06-14T14:16:44;35.80;24.10
15013;DHT22;7603;49.432;11.418;2023-06-14T14:19:09;36.00;23.30
15013;DHT22;7603;49.432;11.418;2023-06-14T14:21:35;36.60;23.00
15013;DHT22;7603;49.432;11.418;2023-06-14T14:24:01;38.30;22.90
15013;DHT22;7603;49.432;11.418;2023-06-14T14:26:27;40.50;21.40
15013;DHT22;7603;49.432;11.418;2023-06-14T14:28:53;42.50;20.40
15013;DHT22;7603;49.432;11.418;2023-06-14T14:31:18;43.10;19.70
15013;DHT22;7603;49.432;11.418;2023-06-14T14:33:44;42.70;19.70
15013;DHT22;7603;49.432;11.418;2023-06-14T14:36:10;42.70;19.90
15013;DHT22;7603;49.432;11.418;2023-06-14T14:38:35;43.20;19.90
15013;DHT22;7603;49.432;11.418;2023-06-14T14:41:01;44.30;19.50
15013;DHT22;7603;49.432;11.418;2023-06-14T14:43:27;45.90;18.70
15013;DHT22;7603;49.432;11.418;2023-06-14T14:45:55;47.20;18.20
15013;DHT22;7603;49.432;11.418;2023-06-14T14:48:22;48.20;17.80
15013;DHT22;7603;49.432;11.418;2023-06-14T14:50:47;49.10;17.60
15013;DHT22;7603;49.432;11.418;2023-06-14T14:53:13;49.50;17.40
15013;DHT22;7603;49.432;11.418;2023-06-14T14:55:42;50.10;16.80
15013;DHT22;7603;49.432;11.418;2023-06-14T14:58:08;50.60;16.60
15013;DHT22;7603;49.432;11.418;2023-06-14T15:00:34;50.90;16.10
15013;DHT22;7603;49.432;11.418;2023-06-14T15:03:00;51.40;16.00
15013;DHT22;7603;49.432;11.418;2023-06-14T15:05:25;51.70;15.80
15013;DHT22;7603;49.432;11.418;2023-06-14T15:07:51;52.10;15.80
15013;DHT22;7603;49.432;11.418;2023-06-14T15:10:17;52.20;15.80
15013;DHT22;7603;49.432;11.418;2023-06-14T15:12:42;50.90;15.70
15013;DHT22;7603;49.432;11.418;2023-06-14T15:15:08;49.70;16.30
15013;DHT22;7603;49.432;11.418;2023-06-14T15:17:35;49.10;16.70
15013;DHT22;7603;49.432;11.418;2023-06-14T15:20:00;48.80;16.90
15013;DHT22;7603;49.432;11.418;2023-06-14T15:22:26;47.60;16.70
15013;DHT22;7603;49.432;11.418;2023-06-14T15:24:52;45.60;17.20
15013;DHT22;7603;49.432;11.418;2023-06-14T15:27:17;42.90;18.20
15013;DHT22;7603;49.432;11.418;2023-06-14T15:29:43;40.50;19.10
15013;DHT22;7603;49.432;11.418;2023-06-14T15:32:10;38.70;20.10
15013;DHT22;7603;49.432;11.418;2023-06-14T15:34:36;37.10;21.20
15013;DHT22;7603;49.432;11.418;2023-06-14T15:37:05;35.80;22.20
15013;DHT22;7603;49.432;11.418;2023-06-14T15:39:31;34.70;23.20
15013;DHT22;7603;49.432;11.418;2023-06-14T15:41:58;34.00;23.80
15013;DHT22;7603;49.432;11.418;2023-06-14T15:44:23;33.50;24.20